sensor_id;sensor_type;location;lat;lon;timestamp;P1;durP1;ratioP1;P2;durP2;ratioP2
12842;SDS011;35724;49.324;-123.118;2022-12-18T00:09:00;3.40;;;3.10;;
12842;SDS011;35724;49.324;-123.118;2022-12-18T00:19:08;4.05;;;3.75;;
12842;SDS011;35724;49.324;-123.118;2022-12-18T00:29:17;3.90;;;3.50;;
12842;SDS011;35724;49.324;-123.118;2022-12-18T00:39:24;5.22;;;4.82;;
12842;SDS011;35724;49.324;-123.118;2022-12-18T00:49:33;4.60;;;4.22;;
12842;SDS011;35724;49.324;-123.118;2022-12-18T00:59:41;4.75;;;4.35;;
12842;SDS011;35724;49.324;-123.118;2022-12-18T01:09:49;5.47;;;4.97;;
12842;SDS011;35724;49.324;-123.118;2022-12-18T01:19:56;4.03;;;3.72;;
12842;SDS011;35724;49.324;-123.118;2022-12-18T01:30:06;3.83;;;3.53;;
12842;SDS011;35724;49.324;-123.118;2022-12-18T01:40:13;4.07;;;3.67;;
12842;SDS011;35724;49.324;-123.118;2022-12-18T01:50:22;3.63;;;3.33;;
12842;SDS011;35724;49.324;-123.118;2022-12-18T02:00:33;4.38;;;3.60;;
12842;SDS011;35724;49.324;-123.118;2022-12-18T02:10:44;3.88;;;3.47;;
12842;SDS011;35724;49.324;-123.118;2022-12-18T02:21:07;3.92;;;3.53;;
12842;SDS011;35724;49.324;-123.118;2022-12-18T02:31:21;3.38;;;3.08;;
12842;SDS011;35724;49.324;-123.118;2022-12-18T02:41:33;3.22;;;3.00;;
12842;SDS011;35724;49.324;-123.118;2022-12-18T02:51:47;3.92;;;2.80;;
12842;SDS011;35724;49.324;-123.118;2022-12-18T03:02:01;7.32;;;2.90;;
12842;SDS011;35724;49.324;-123.118;2022-12-18T03:12:14;4.68;;;2.42;;
12842;SDS011;35724;49.324;-123.118;2022-12-18T03:22:32;3.47;;;1.95;;
12842;SDS011;35724;49.324;-123.118;2022-12-18T03:32:43;3.03;;;2.33;;
12842;SDS011;35724;49.324;-123.118;2022-12-18T03:42:56;4.85;;;2.40;;
12842;SDS011;35724;49.324;-123.118;2022-12-18T03:53:14;4.55;;;2.42;;
12842;SDS011;35724;49.324;-123.118;2022-12-18T04:03:29;5.32;;;2.90;;
12842;SDS011;35724;49.324;-123.118;2022-12-18T04:13:40;5.65;;;3.28;;
12842;SDS011;35724;49.324;-123.118;2022-12-18T04:23:56;4.13;;;3.10;;
12842;SDS011;35724;49.324;-123.118;2022-12-18T04:34:06;3.13;;;2.50;;
12842;SDS011;35724;49.324;-123.118;2022-12-18T04:44:19;4.35;;;2.92;;
12842;SDS011;35724;49.324;-123.118;2022-12-18T04:54:28;3.13;;;2.47;;
12842;SDS011;35724;49.324;-123.118;2022-12-18T05:04:35;3.92;;;2.40;;
12842;SDS011;35724;49.324;-123.118;2022-12-18T05:14:47;5.00;;;2.95;;
12842;SDS011;35724;49.324;-123.118;2022-12-18T05:24:54;4.00;;;2.80;;
12842;SDS011;35724;49.324;-123.118;2022-12-18T05:35:04;10.68;;;4.03;;
12842;SDS011;35724;49.324;-123.118;2022-12-18T05:45:12;6.70;;;3.95;;
12842;SDS011;35724;49.324;-123.118;2022-12-18T05:55:21;4.93;;;3.70;;
12842;SDS011;35724;49.324;-123.118;2022-12-18T06:05:28;4.88;;;3.50;;
12842;SDS011;35724;49.324;-123.118;2022-12-18T06:15:42;4.82;;;3.00;;
12842;SDS011;35724;49.324;-123.118;2022-12-18T06:25:49;4.45;;;3.25;;
12842;SDS011;35724;49.324;-123.118;2022-12-18T06:36:00;4.47;;;2.97;;
12842;SDS011;35724;49.324;-123.118;2022-12-18T06:46:08;5.00;;;2.70;;
12842;SDS011;35724;49.324;-123.118;2022-12-18T06:56:17;4.32;;;2.50;;
12842;SDS011;35724;49.324;-123.118;2022-12-18T07:06:26;3.58;;;2.10;;
12842;SDS011;35724;49.324;-123.118;2022-12-18T07:16:34;2.65;;;1.90;;
12842;SDS011;35724;49.324;-123.118;2022-12-18T07:26:41;3.55;;;1.73;;
12842;SDS011;35724;49.324;-123.118;2022-12-18T07:36:52;2.15;;;1.60;;
12842;SDS011;35724;49.324;-123.118;2022-12-18T07:46:59;2.70;;;1.73;;
12842;SDS011;35724;49.324;-123.118;2022-12-18T07:57:15;2.88;;;2.05;;
12842;SDS011;35724;49.324;-123.118;2022-12-18T08:07:42;3.72;;;2.00;;
12842;SDS011;35724;49.324;-123.118;2022-12-18T08:17:51;4.53;;;1.80;;
12842;SDS011;35724;49.324;-123.118;2022-12-18T08:28:02;2.47;;;1.58;;
12842;SDS011;35724;49.324;-123.118;2022-12-18T08:38:10;2.60;;;1.38;;
12842;SDS011;35724;49.324;-123.118;2022-12-18T08:48:18;1.40;;;1.30;;
12842;SDS011;35724;49.324;-123.118;2022-12-18T08:58:27;1.30;;;1.20;;
12842;SDS011;35724;49.324;-123.118;2022-12-18T09:08:34;1.85;;;1.17;;
12842;SDS011;35724;49.324;-123.118;2022-12-18T09:18:44;2.17;;;1.20;;
12842;SDS011;35724;49.324;-123.118;2022-12-18T09:28:51;0.95;;;0.95;;
12842;SDS011;35724;49.324;-123.118;2022-12-18T09:39:00;0.93;;;0.93;;
12842;SDS011;35724;49.324;-123.118;2022-12-18T09:49:11;1.08;;;0.98;;
12842;SDS011;35724;49.324;-123.118;2022-12-18T09:59:25;1.10;;;1.00;;
12842;SDS011;35724;49.324;-123.118;2022-12-18T10:09:37;1.13;;;1.02;;
12842;SDS011;35724;49.324;-123.118;2022-12-18T10:19:50;1.10;;;1.00;;
12842;SDS011;35724;49.324;-123.118;2022-12-18T10:30:04;1.05;;;0.90;;
12842;SDS011;35724;49.324;-123.118;2022-12-18T10:40:19;1.08;;;0.90;;
12842;SDS011;35724;49.324;-123.118;2022-12-18T10:50:26;0.80;;;0.80;;
12842;SDS011;35724;49.324;-123.118;2022-12-18T11:01:05;0.80;;;0.80;;
12842;SDS011;35724;49.324;-123.118;2022-12-18T11:11:15;1.52;;;0.80;;
12842;SDS011;35724;49.324;-123.118;2022-12-18T11:21:27;2.00;;;0.90;;
12842;SDS011;35724;49.324;-123.118;2022-12-18T11:31:34;0.80;;;0.80;;
12842;SDS011;35724;49.324;-123.118;2022-12-18T11:41:43;0.70;;;0.70;;
12842;SDS011;35724;49.324;-123.118;2022-12-18T11:52:18;0.70;;;0.70;;
12842;SDS011;35724;49.324;-123.118;2022-12-18T12:02:33;0.70;;;0.70;;
12842;SDS011;35724;49.324;-123.118;2022-12-18T12:13:00;0.77;;;0.70;;
12842;SDS011;35724;49.324;-123.118;2022-12-18T12:23:26;0.70;;;0.70;;
12842;SDS011;35724;49.324;-123.118;2022-12-18T12:33:40;1.05;;;0.77;;
12842;SDS011;35724;49.324;-123.118;2022-12-18T12:44:00;0.60;;;0.60;;
12842;SDS011;35724;49.324;-123.118;2022-12-18T12:54:13;0.70;;;0.70;;
12842;SDS011;35724;49.324;-123.118;2022-12-18T13:04:27;0.50;;;0.50;;
12842;SDS011;35724;49.324;-123.118;2022-12-18T13:14:40;0.50;;;0.50;;
12842;SDS011;35724;49.324;-123.118;2022-12-18T13:24:50;1.15;;;0.68;;
12842;SDS011;35724;49.324;-123.118;2022-12-18T13:45:48;0.60;;;0.60;;
12842;SDS011;35724;49.324;-123.118;2022-12-18T13:56:04;0.63;;;0.63;;
12842;SDS011;35724;49.324;-123.118;2022-12-18T14:06:13;0.60;;;0.60;;
12842;SDS011;35724;49.324;-123.118;2022-12-18T14:16:20;0.60;;;0.60;;
12842;SDS011;35724;49.324;-123.118;2022-12-18T14:26:30;0.63;;;0.63;;
12842;SDS011;35724;49.324;-123.118;2022-12-18T17:52:59;2.25;;;1.10;;
12842;SDS011;35724;49.324;-123.118;2022-12-18T18:03:07;2.85;;;1.38;;
12842;SDS011;35724;49.324;-123.118;2022-12-18T18:13:17;2.70;;;2.50;;
12842;SDS011;35724;49.324;-123.118;2022-12-18T18:23:48;4.80;;;1.90;;
12842;SDS011;35724;49.324;-123.118;2022-12-18T18:33:57;3.53;;;1.30;;
12842;SDS011;35724;49.324;-123.118;2022-12-18T18:44:04;2.85;;;1.20;;
12842;SDS011;35724;49.324;-123.118;2022-12-18T18:54:13;2.25;;;1.23;;
12842;SDS011;35724;49.324;-123.118;2022-12-18T19:04:20;2.72;;;1.10;;
12842;SDS011;35724;49.324;-123.118;2022-12-18T19:14:29;1.73;;;1.27;;
12842;SDS011;35724;49.324;-123.118;2022-12-18T19:24:35;2.17;;;1.20;;
12842;SDS011;35724;49.324;-123.118;2022-12-18T19:34:44;2.10;;;1.30;;
12842;SDS011;35724;49.324;-123.118;2022-12-18T19:44:51;3.03;;;1.45;;
12842;SDS011;35724;49.324;-123.118;2022-12-18T19:55:00;1.73;;;1.17;;
12842;SDS011;35724;49.324;-123.118;2022-12-18T20:05:18;2.85;;;1.35;;
12842;SDS011;35724;49.324;-123.118;2022-12-18T20:15:32;2.42;;;1.30;;
12842;SDS011;35724;49.324;-123.118;2022-12-18T20:25:51;1.88;;;1.38;;
12842;SDS011;35724;49.324;-123.118;2022-12-18T20:36:06;2.90;;;1.42;;
12842;SDS011;35724;49.324;-123.118;2022-12-18T20:46:18;7.88;;;1.80;;
12842;SDS011;35724;49.324;-123.118;2022-12-18T20:56:31;6.63;;;1.77;;
12842;SDS011;35724;49.324;-123.118;2022-12-18T21:06:39;6.97;;;1.80;;
12842;SDS011;35724;49.324;-123.118;2022-12-18T21:16:55;5.28;;;1.80;;
12842;SDS011;35724;49.324;-123.118;2022-12-18T21:27:04;4.97;;;1.80;;
12842;SDS011;35724;49.324;-123.118;2022-12-18T21:37:17;3.80;;;1.90;;
12842;SDS011;35724;49.324;-123.118;2022-12-18T21:47:23;4.40;;;1.50;;
12842;SDS011;35724;49.324;-123.118;2022-12-18T21:57:32;2.10;;;1.50;;
12842;SDS011;35724;49.324;-123.118;2022-12-18T22:07:39;3.97;;;1.60;;
12842;SDS011;35724;49.324;-123.118;2022-12-18T22:17:48;3.13;;;1.40;;
12842;SDS011;35724;49.324;-123.118;2022-12-18T22:28:02;1.80;;;1.15;;
12842;SDS011;35724;49.324;-123.118;2022-12-18T22:38:27;3.80;;;1.05;;
12842;SDS011;35724;49.324;-123.118;2022-12-18T22:48:34;1.63;;;1.20;;
12842;SDS011;35724;49.324;-123.118;2022-12-18T22:58:42;6.60;;;2.10;;
12842;SDS011;35724;49.324;-123.118;2022-12-18T23:08:54;2.63;;;1.50;;
12842;SDS011;35724;49.324;-123.118;2022-12-18T23:19:03;2.03;;;1.10;;
12842;SDS011;35724;49.324;-123.118;2022-12-18T23:29:10;1.42;;;1.00;;
12842;SDS011;35724;49.324;-123.118;2022-12-18T23:39:19;1.25;;;0.90;;
12842;SDS011;35724;49.324;-123.118;2022-12-18T23:49:31;1.23;;;0.90;;
12842;SDS011;35724;49.324;-123.118;2022-12-18T23:59:41;1.05;;;0.85;;
